sensor_id;sensor_type;location;lat;lon;timestamp;P1;durP1;ratioP1;P2;durP2;ratioP2
10442;SDS011;5269;51.146;16.986;2022-07-19T00:00:51;8.70;;;6.22;;
10442;SDS011;5269;51.146;16.986;2022-07-19T00:03:17;9.52;;;6.72;;
10442;SDS011;5269;51.146;16.986;2022-07-19T00:05:47;9.38;;;6.45;;
10442;SDS011;5269;51.146;16.986;2022-07-19T00:08:14;10.43;;;6.78;;
10442;SDS011;5269;51.146;16.986;2022-07-19T00:10:44;10.85;;;7.30;;
10442;SDS011;5269;51.146;16.986;2022-07-19T00:13:11;9.77;;;7.20;;
10442;SDS011;5269;51.146;16.986;2022-07-19T00:15:38;9.93;;;6.75;;
10442;SDS011;5269;51.146;16.986;2022-07-19T00:18:05;12.13;;;7.28;;
10442;SDS011;5269;51.146;16.986;2022-07-19T00:20:31;10.85;;;6.95;;
10442;SDS011;5269;51.146;16.986;2022-07-19T00:23:00;8.45;;;6.57;;
10442;SDS011;5269;51.146;16.986;2022-07-19T00:25:27;11.77;;;6.80;;
10442;SDS011;5269;51.146;16.986;2022-07-19T00:27:54;11.68;;;7.10;;
10442;SDS011;5269;51.146;16.986;2022-07-19T00:30:20;11.13;;;7.10;;
10442;SDS011;5269;51.146;16.986;2022-07-19T00:32:47;12.63;;;6.93;;
10442;SDS011;5269;51.146;16.986;2022-07-19T00:35:14;11.13;;;6.63;;
10442;SDS011;5269;51.146;16.986;2022-07-19T00:37:43;10.57;;;6.45;;
10442;SDS011;5269;51.146;16.986;2022-07-19T00:40:11;9.32;;;6.78;;
10442;SDS011;5269;51.146;16.986;2022-07-19T00:42:38;9.65;;;6.68;;
10442;SDS011;5269;51.146;16.986;2022-07-19T00:45:06;13.73;;;7.03;;
10442;SDS011;5269;51.146;16.986;2022-07-19T00:47:33;9.80;;;6.63;;
10442;SDS011;5269;51.146;16.986;2022-07-19T00:50:00;13.15;;;7.35;;
10442;SDS011;5269;51.146;16.986;2022-07-19T00:52:28;9.57;;;6.60;;
10442;SDS011;5269;51.146;16.986;2022-07-19T00:54:57;12.95;;;7.00;;
10442;SDS011;5269;51.146;16.986;2022-07-19T00:57:26;10.20;;;6.22;;
10442;SDS011;5269;51.146;16.986;2022-07-19T00:59:54;7.82;;;5.97;;
10442;SDS011;5269;51.146;16.986;2022-07-19T01:02:21;11.73;;;6.50;;
10442;SDS011;5269;51.146;16.986;2022-07-19T01:04:49;9.90;;;6.93;;
10442;SDS011;5269;51.146;16.986;2022-07-19T01:07:16;9.57;;;7.05;;
10442;SDS011;5269;51.146;16.986;2022-07-19T01:09:43;11.43;;;6.75;;
10442;SDS011;5269;51.146;16.986;2022-07-19T01:12:10;12.27;;;6.78;;
10442;SDS011;5269;51.146;16.986;2022-07-19T01:14:39;10.70;;;6.47;;
10442;SDS011;5269;51.146;16.986;2022-07-19T01:17:06;7.97;;;6.32;;
10442;SDS011;5269;51.146;16.986;2022-07-19T01:19:33;8.35;;;6.35;;
10442;SDS011;5269;51.146;16.986;2022-07-19T01:22:01;10.05;;;6.30;;
10442;SDS011;5269;51.146;16.986;2022-07-19T01:24:28;7.68;;;6.15;;
10442;SDS011;5269;51.146;16.986;2022-07-19T01:26:55;6.53;;;5.93;;
10442;SDS011;5269;51.146;16.986;2022-07-19T01:29:22;13.65;;;6.00;;
10442;SDS011;5269;51.146;16.986;2022-07-19T01:31:49;11.20;;;5.85;;
10442;SDS011;5269;51.146;16.986;2022-07-19T01:34:16;11.07;;;5.93;;
10442;SDS011;5269;51.146;16.986;2022-07-19T01:36:43;11.13;;;6.10;;
10442;SDS011;5269;51.146;16.986;2022-07-19T01:39:12;10.65;;;6.20;;
10442;SDS011;5269;51.146;16.986;2022-07-19T01:41:39;10.45;;;6.15;;
10442;SDS011;5269;51.146;16.986;2022-07-19T01:44:06;11.38;;;5.93;;
10442;SDS011;5269;51.146;16.986;2022-07-19T01:46:32;8.27;;;5.55;;
10442;SDS011;5269;51.146;16.986;2022-07-19T01:48:59;10.27;;;5.50;;
10442;SDS011;5269;51.146;16.986;2022-07-19T01:51:26;9.20;;;5.60;;
10442;SDS011;5269;51.146;16.986;2022-07-19T01:53:53;7.05;;;4.97;;
10442;SDS011;5269;51.146;16.986;2022-07-19T01:56:21;10.15;;;5.28;;
10442;SDS011;5269;51.146;16.986;2022-07-19T01:58:48;12.85;;;5.57;;
10442;SDS011;5269;51.146;16.986;2022-07-19T02:01:16;7.20;;;5.25;;
10442;SDS011;5269;51.146;16.986;2022-07-19T02:03:42;12.93;;;5.32;;
10442;SDS011;5269;51.146;16.986;2022-07-19T02:06:09;11.02;;;5.45;;
10442;SDS011;5269;51.146;16.986;2022-07-19T02:08:36;8.85;;;5.75;;
10442;SDS011;5269;51.146;16.986;2022-07-19T02:11:05;7.10;;;5.20;;
10442;SDS011;5269;51.146;16.986;2022-07-19T02:13:48;9.55;;;5.82;;
10442;SDS011;5269;51.146;16.986;2022-07-19T02:16:15;9.18;;;5.65;;
10442;SDS011;5269;51.146;16.986;2022-07-19T02:18:41;7.82;;;5.72;;
10442;SDS011;5269;51.146;16.986;2022-07-19T02:21:08;7.85;;;5.38;;
10442;SDS011;5269;51.146;16.986;2022-07-19T02:23:36;8.32;;;5.47;;
10442;SDS011;5269;51.146;16.986;2022-07-19T02:26:02;12.15;;;5.82;;
10442;SDS011;5269;51.146;16.986;2022-07-19T02:28:34;7.28;;;5.35;;
10442;SDS011;5269;51.146;16.986;2022-07-19T02:31:54;7.03;;;4.88;;
10442;SDS011;5269;51.146;16.986;2022-07-19T02:34:29;8.27;;;5.50;;
10442;SDS011;5269;51.146;16.986;2022-07-19T02:36:56;8.90;;;5.53;;
10442;SDS011;5269;51.146;16.986;2022-07-19T02:39:23;9.52;;;5.35;;
10442;SDS011;5269;51.146;16.986;2022-07-19T02:41:50;10.85;;;5.03;;
10442;SDS011;5269;51.146;16.986;2022-07-19T02:44:17;8.07;;;5.25;;
10442;SDS011;5269;51.146;16.986;2022-07-19T02:46:45;8.57;;;5.15;;
10442;SDS011;5269;51.146;16.986;2022-07-19T02:49:13;9.50;;;5.40;;
10442;SDS011;5269;51.146;16.986;2022-07-19T02:51:40;8.25;;;5.00;;
10442;SDS011;5269;51.146;16.986;2022-07-19T02:54:07;7.50;;;4.88;;
10442;SDS011;5269;51.146;16.986;2022-07-19T02:56:34;8.68;;;4.93;;
10442;SDS011;5269;51.146;16.986;2022-07-19T02:59:02;12.38;;;5.50;;
10442;SDS011;5269;51.146;16.986;2022-07-19T03:01:29;14.43;;;5.22;;
10442;SDS011;5269;51.146;16.986;2022-07-19T03:03:57;9.85;;;5.35;;
10442;SDS011;5269;51.146;16.986;2022-07-19T03:06:25;9.05;;;5.20;;
10442;SDS011;5269;51.146;16.986;2022-07-19T03:08:52;11.10;;;5.57;;
10442;SDS011;5269;51.146;16.986;2022-07-19T03:11:19;8.48;;;5.15;;
10442;SDS011;5269;51.146;16.986;2022-07-19T03:13:46;10.13;;;5.78;;
10442;SDS011;5269;51.146;16.986;2022-07-19T03:16:12;10.63;;;5.18;;
10442;SDS011;5269;51.146;16.986;2022-07-19T03:18:39;5.88;;;4.65;;
10442;SDS011;5269;51.146;16.986;2022-07-19T03:21:08;8.27;;;5.53;;
10442;SDS011;5269;51.146;16.986;2022-07-19T03:23:35;8.27;;;5.05;;
10442;SDS011;5269;51.146;16.986;2022-07-19T03:26:03;10.18;;;5.30;;
10442;SDS011;5269;51.146;16.986;2022-07-19T03:28:31;7.00;;;5.10;;
10442;SDS011;5269;51.146;16.986;2022-07-19T03:30:58;8.88;;;5.57;;
10442;SDS011;5269;51.146;16.986;2022-07-19T03:33:25;10.10;;;5.32;;
10442;SDS011;5269;51.146;16.986;2022-07-19T03:35:52;8.38;;;5.40;;
10442;SDS011;5269;51.146;16.986;2022-07-19T03:38:20;8.05;;;5.10;;
10442;SDS011;5269;51.146;16.986;2022-07-19T03:40:47;7.68;;;5.32;;
10442;SDS011;5269;51.146;16.986;2022-07-19T03:43:15;6.97;;;4.85;;
10442;SDS011;5269;51.146;16.986;2022-07-19T03:45:43;9.82;;;5.20;;
10442;SDS011;5269;51.146;16.986;2022-07-19T03:48:11;8.45;;;4.90;;
10442;SDS011;5269;51.146;16.986;2022-07-19T03:50:38;7.22;;;5.25;;
10442;SDS011;5269;51.146;16.986;2022-07-19T03:53:05;5.82;;;4.68;;
10442;SDS011;5269;51.146;16.986;2022-07-19T03:55:33;11.38;;;5.25;;
10442;SDS011;5269;51.146;16.986;2022-07-19T03:58:00;9.70;;;5.43;;
10442;SDS011;5269;51.146;16.986;2022-07-19T04:00:27;10.18;;;5.50;;
10442;SDS011;5269;51.146;16.986;2022-07-19T04:02:54;9.00;;;4.97;;
10442;SDS011;5269;51.146;16.986;2022-07-19T04:05:21;6.20;;;4.97;;
10442;SDS011;5269;51.146;16.986;2022-07-19T04:07:48;7.57;;;5.13;;
10442;SDS011;5269;51.146;16.986;2022-07-19T04:10:15;7.30;;;5.03;;
10442;SDS011;5269;51.146;16.986;2022-07-19T04:12:43;10.27;;;4.93;;
10442;SDS011;5269;51.146;16.986;2022-07-19T04:15:10;10.00;;;5.10;;
10442;SDS011;5269;51.146;16.986;2022-07-19T04:17:37;6.72;;;4.95;;
10442;SDS011;5269;51.146;16.986;2022-07-19T04:20:05;8.90;;;5.63;;
10442;SDS011;5269;51.146;16.986;2022-07-19T04:22:32;9.20;;;6.05;;
10442;SDS011;5269;51.146;16.986;2022-07-19T04:24:59;8.15;;;5.40;;
10442;SDS011;5269;51.146;16.986;2022-07-19T04:27:27;7.13;;;4.85;;
10442;SDS011;5269;51.146;16.986;2022-07-19T04:29:56;7.85;;;5.07;;
10442;SDS011;5269;51.146;16.986;2022-07-19T04:32:23;7.50;;;5.22;;
10442;SDS011;5269;51.146;16.986;2022-07-19T04:34:51;11.05;;;5.20;;
10442;SDS011;5269;51.146;16.986;2022-07-19T04:37:18;8.57;;;5.45;;
10442;SDS011;5269;51.146;16.986;2022-07-19T04:39:45;10.05;;;5.28;;
10442;SDS011;5269;51.146;16.986;2022-07-19T04:42:11;8.90;;;5.90;;
10442;SDS011;5269;51.146;16.986;2022-07-19T04:44:38;10.30;;;5.72;;
10442;SDS011;5269;51.146;16.986;2022-07-19T04:47:07;12.02;;;5.10;;
10442;SDS011;5269;51.146;16.986;2022-07-19T04:49:33;9.45;;;5.32;;
10442;SDS011;5269;51.146;16.986;2022-07-19T04:52:00;8.48;;;5.82;;
10442;SDS011;5269;51.146;16.986;2022-07-19T04:54:27;10.60;;;4.85;;
10442;SDS011;5269;51.146;16.986;2022-07-19T04:56:54;10.02;;;4.72;;
10442;SDS011;5269;51.146;16.986;2022-07-19T04:59:21;7.80;;;4.80;;
10442;SDS011;5269;51.146;16.986;2022-07-19T05:01:48;9.15;;;4.20;;
10442;SDS011;5269;51.146;16.986;2022-07-19T05:04:16;4.88;;;4.38;;
10442;SDS011;5269;51.146;16.986;2022-07-19T05:06:43;7.20;;;4.32;;
10442;SDS011;5269;51.146;16.986;2022-07-19T05:09:10;8.05;;;3.85;;
10442;SDS011;5269;51.146;16.986;2022-07-19T05:11:37;7.72;;;3.83;;
10442;SDS011;5269;51.146;16.986;2022-07-19T05:14:04;5.45;;;3.95;;
10442;SDS011;5269;51.146;16.986;2022-07-19T05:16:31;6.85;;;3.80;;
10442;SDS011;5269;51.146;16.986;2022-07-19T05:18:57;5.53;;;3.70;;
10442;SDS011;5269;51.146;16.986;2022-07-19T05:21:26;8.70;;;3.83;;
10442;SDS011;5269;51.146;16.986;2022-07-19T05:23:53;6.85;;;3.80;;
10442;SDS011;5269;51.146;16.986;2022-07-19T05:26:19;6.78;;;3.95;;
10442;SDS011;5269;51.146;16.986;2022-07-19T05:28:46;7.07;;;3.88;;
10442;SDS011;5269;51.146;16.986;2022-07-19T05:31:13;11.15;;;3.92;;
10442;SDS011;5269;51.146;16.986;2022-07-19T05:33:41;7.45;;;3.47;;
10442;SDS011;5269;51.146;16.986;2022-07-19T05:36:08;8.88;;;3.60;;
10442;SDS011;5269;51.146;16.986;2022-07-19T05:38:37;7.72;;;3.20;;
10442;SDS011;5269;51.146;16.986;2022-07-19T05:41:04;6.28;;;3.55;;
10442;SDS011;5269;51.146;16.986;2022-07-19T05:43:31;6.32;;;3.47;;
10442;SDS011;5269;51.146;16.986;2022-07-19T05:45:59;5.00;;;3.50;;
10442;SDS011;5269;51.146;16.986;2022-07-19T05:48:26;8.75;;;3.60;;
10442;SDS011;5269;51.146;16.986;2022-07-19T05:50:53;3.83;;;3.45;;
10442;SDS011;5269;51.146;16.986;2022-07-19T05:53:20;4.85;;;3.70;;
10442;SDS011;5269;51.146;16.986;2022-07-19T05:55:49;5.85;;;3.70;;
10442;SDS011;5269;51.146;16.986;2022-07-19T05:58:16;7.03;;;3.80;;
10442;SDS011;5269;51.146;16.986;2022-07-19T06:00:43;7.50;;;3.30;;
10442;SDS011;5269;51.146;16.986;2022-07-19T06:03:32;5.50;;;3.45;;
10442;SDS011;5269;51.146;16.986;2022-07-19T06:05:59;5.25;;;3.40;;
10442;SDS011;5269;51.146;16.986;2022-07-19T06:08:26;6.03;;;3.40;;
10442;SDS011;5269;51.146;16.986;2022-07-19T06:10:54;10.50;;;4.03;;
10442;SDS011;5269;51.146;16.986;2022-07-19T06:13:21;6.55;;;3.28;;
10442;SDS011;5269;51.146;16.986;2022-07-19T06:15:48;4.35;;;3.50;;
10442;SDS011;5269;51.146;16.986;2022-07-19T06:18:16;4.45;;;3.38;;
10442;SDS011;5269;51.146;16.986;2022-07-19T06:20:43;13.27;;;3.70;;
10442;SDS011;5269;51.146;16.986;2022-07-19T06:23:10;6.95;;;3.72;;
10442;SDS011;5269;51.146;16.986;2022-07-19T06:25:37;10.65;;;3.97;;
10442;SDS011;5269;51.146;16.986;2022-07-19T06:28:05;4.78;;;3.10;;
10442;SDS011;5269;51.146;16.986;2022-07-19T06:30:32;6.32;;;3.45;;
10442;SDS011;5269;51.146;16.986;2022-07-19T06:32:59;9.32;;;3.53;;
10442;SDS011;5269;51.146;16.986;2022-07-19T06:35:26;7.68;;;3.50;;
10442;SDS011;5269;51.146;16.986;2022-07-19T06:37:53;5.28;;;3.58;;
10442;SDS011;5269;51.146;16.986;2022-07-19T06:40:20;5.18;;;3.60;;
10442;SDS011;5269;51.146;16.986;2022-07-19T06:42:47;14.73;;;3.65;;
10442;SDS011;5269;51.146;16.986;2022-07-19T06:45:15;9.50;;;3.50;;
10442;SDS011;5269;51.146;16.986;2022-07-19T06:47:42;11.50;;;3.50;;
10442;SDS011;5269;51.146;16.986;2022-07-19T06:50:09;5.97;;;3.50;;
10442;SDS011;5269;51.146;16.986;2022-07-19T06:52:36;6.63;;;3.50;;
10442;SDS011;5269;51.146;16.986;2022-07-19T06:55:03;7.82;;;3.20;;
10442;SDS011;5269;51.146;16.986;2022-07-19T06:57:30;14.73;;;3.72;;
10442;SDS011;5269;51.146;16.986;2022-07-19T06:59:57;8.50;;;3.40;;
10442;SDS011;5269;51.146;16.986;2022-07-19T07:02:25;6.20;;;3.20;;
10442;SDS011;5269;51.146;16.986;2022-07-19T07:04:52;8.10;;;3.38;;
10442;SDS011;5269;51.146;16.986;2022-07-19T07:07:19;4.70;;;2.70;;
10442;SDS011;5269;51.146;16.986;2022-07-19T07:09:46;12.77;;;3.80;;
10442;SDS011;5269;51.146;16.986;2022-07-19T07:12:13;11.13;;;3.22;;
10442;SDS011;5269;51.146;16.986;2022-07-19T07:14:40;6.18;;;3.38;;
10442;SDS011;5269;51.146;16.986;2022-07-19T07:17:07;7.95;;;3.42;;
10442;SDS011;5269;51.146;16.986;2022-07-19T07:19:35;10.18;;;3.45;;
10442;SDS011;5269;51.146;16.986;2022-07-19T07:22:02;13.30;;;3.40;;
10442;SDS011;5269;51.146;16.986;2022-07-19T07:24:29;6.47;;;2.72;;
10442;SDS011;5269;51.146;16.986;2022-07-19T07:26:56;8.60;;;3.00;;
10442;SDS011;5269;51.146;16.986;2022-07-19T07:29:23;10.60;;;3.53;;
10442;SDS011;5269;51.146;16.986;2022-07-19T07:31:49;7.45;;;3.03;;
10442;SDS011;5269;51.146;16.986;2022-07-19T07:34:16;13.57;;;3.22;;
10442;SDS011;5269;51.146;16.986;2022-07-19T07:36:45;12.10;;;3.20;;
10442;SDS011;5269;51.146;16.986;2022-07-19T07:39:12;4.55;;;3.05;;
10442;SDS011;5269;51.146;16.986;2022-07-19T07:41:39;11.95;;;3.28;;
10442;SDS011;5269;51.146;16.986;2022-07-19T07:44:07;6.15;;;3.13;;
10442;SDS011;5269;51.146;16.986;2022-07-19T07:46:34;6.30;;;3.22;;
10442;SDS011;5269;51.146;16.986;2022-07-19T07:49:01;9.00;;;2.85;;
10442;SDS011;5269;51.146;16.986;2022-07-19T07:51:28;7.78;;;2.60;;
10442;SDS011;5269;51.146;16.986;2022-07-19T07:53:57;7.18;;;2.60;;
10442;SDS011;5269;51.146;16.986;2022-07-19T07:56:25;6.97;;;3.00;;
10442;SDS011;5269;51.146;16.986;2022-07-19T07:58:52;4.63;;;3.10;;
10442;SDS011;5269;51.146;16.986;2022-07-19T08:01:19;4.65;;;3.10;;
10442;SDS011;5269;51.146;16.986;2022-07-19T08:03:46;7.22;;;2.70;;
10442;SDS011;5269;51.146;16.986;2022-07-19T08:06:13;9.80;;;3.28;;
10442;SDS011;5269;51.146;16.986;2022-07-19T08:08:40;5.47;;;2.90;;
10442;SDS011;5269;51.146;16.986;2022-07-19T08:11:09;6.15;;;2.78;;
10442;SDS011;5269;51.146;16.986;2022-07-19T08:13:36;13.38;;;4.07;;
10442;SDS011;5269;51.146;16.986;2022-07-19T08:16:03;10.50;;;4.25;;
10442;SDS011;5269;51.146;16.986;2022-07-19T08:18:31;8.25;;;4.53;;
10442;SDS011;5269;51.146;16.986;2022-07-19T08:20:58;4.18;;;2.88;;
10442;SDS011;5269;51.146;16.986;2022-07-19T08:23:25;5.32;;;2.65;;
10442;SDS011;5269;51.146;16.986;2022-07-19T08:25:52;9.13;;;2.95;;
10442;SDS011;5269;51.146;16.986;2022-07-19T08:28:20;5.18;;;2.80;;
10442;SDS011;5269;51.146;16.986;2022-07-19T08:30:47;4.15;;;2.70;;
10442;SDS011;5269;51.146;16.986;2022-07-19T08:33:14;3.60;;;2.80;;
10442;SDS011;5269;51.146;16.986;2022-07-19T08:35:41;3.95;;;3.33;;
10442;SDS011;5269;51.146;16.986;2022-07-19T08:38:07;4.28;;;2.97;;
10442;SDS011;5269;51.146;16.986;2022-07-19T08:40:34;4.22;;;2.70;;
10442;SDS011;5269;51.146;16.986;2022-07-19T08:43:04;2.72;;;2.50;;
10442;SDS011;5269;51.146;16.986;2022-07-19T08:45:33;3.28;;;2.97;;
10442;SDS011;5269;51.146;16.986;2022-07-19T08:48:02;7.53;;;3.30;;
10442;SDS011;5269;51.146;16.986;2022-07-19T08:50:32;6.93;;;3.10;;
10442;SDS011;5269;51.146;16.986;2022-07-19T08:52:59;3.13;;;2.83;;
10442;SDS011;5269;51.146;16.986;2022-07-19T08:55:26;2.83;;;2.50;;
10442;SDS011;5269;51.146;16.986;2022-07-19T08:57:53;4.53;;;2.47;;
10442;SDS011;5269;51.146;16.986;2022-07-19T09:00:22;2.70;;;2.50;;
10442;SDS011;5269;51.146;16.986;2022-07-19T09:02:52;3.90;;;2.70;;
10442;SDS011;5269;51.146;16.986;2022-07-19T09:05:20;3.67;;;2.67;;
10442;SDS011;5269;51.146;16.986;2022-07-19T09:08:06;5.28;;;2.78;;
10442;SDS011;5269;51.146;16.986;2022-07-19T09:10:35;3.15;;;2.85;;
10442;SDS011;5269;51.146;16.986;2022-07-19T09:13:05;3.00;;;2.70;;
10442;SDS011;5269;51.146;16.986;2022-07-19T09:15:40;3.10;;;2.80;;
10442;SDS011;5269;51.146;16.986;2022-07-19T09:18:12;6.15;;;2.90;;
10442;SDS011;5269;51.146;16.986;2022-07-19T09:20:41;3.97;;;2.72;;
10442;SDS011;5269;51.146;16.986;2022-07-19T09:23:09;3.58;;;3.17;;
10442;SDS011;5269;51.146;16.986;2022-07-19T09:25:37;4.30;;;2.83;;
10442;SDS011;5269;51.146;16.986;2022-07-19T09:28:06;4.25;;;3.33;;
10442;SDS011;5269;51.146;16.986;2022-07-19T09:30:37;6.15;;;3.30;;
10442;SDS011;5269;51.146;16.986;2022-07-19T09:33:07;3.80;;;3.28;;
10442;SDS011;5269;51.146;16.986;2022-07-19T09:35:38;4.32;;;3.10;;
10442;SDS011;5269;51.146;16.986;2022-07-19T09:38:13;3.50;;;2.97;;
10442;SDS011;5269;51.146;16.986;2022-07-19T09:40:41;5.22;;;2.80;;
10442;SDS011;5269;51.146;16.986;2022-07-19T09:43:08;3.33;;;2.90;;
10442;SDS011;5269;51.146;16.986;2022-07-19T09:45:35;2.92;;;2.72;;
10442;SDS011;5269;51.146;16.986;2022-07-19T09:48:02;4.43;;;3.40;;
10442;SDS011;5269;51.146;16.986;2022-07-19T09:50:30;5.75;;;2.90;;
10442;SDS011;5269;51.146;16.986;2022-07-19T09:53:00;4.95;;;3.13;;
10442;SDS011;5269;51.146;16.986;2022-07-19T09:55:28;6.55;;;3.30;;
10442;SDS011;5269;51.146;16.986;2022-07-19T09:57:56;4.43;;;3.38;;
10442;SDS011;5269;51.146;16.986;2022-07-19T10:00:25;4.15;;;3.38;;
10442;SDS011;5269;51.146;16.986;2022-07-19T10:02:53;5.30;;;2.80;;
10442;SDS011;5269;51.146;16.986;2022-07-19T10:05:22;8.77;;;3.20;;
10442;SDS011;5269;51.146;16.986;2022-07-19T10:07:50;4.43;;;2.95;;
10442;SDS011;5269;51.146;16.986;2022-07-19T10:10:20;4.88;;;2.92;;
10442;SDS011;5269;51.146;16.986;2022-07-19T10:12:49;3.00;;;2.80;;
10442;SDS011;5269;51.146;16.986;2022-07-19T10:15:18;4.35;;;3.05;;
10442;SDS011;5269;51.146;16.986;2022-07-19T10:17:47;3.10;;;2.80;;
10442;SDS011;5269;51.146;16.986;2022-07-19T10:20:24;8.60;;;3.05;;
10442;SDS011;5269;51.146;16.986;2022-07-19T10:22:52;4.78;;;3.13;;
10442;SDS011;5269;51.146;16.986;2022-07-19T10:25:24;5.68;;;2.92;;
10442;SDS011;5269;51.146;16.986;2022-07-19T10:28:02;4.22;;;3.03;;
10442;SDS011;5269;51.146;16.986;2022-07-19T10:30:37;4.97;;;3.10;;
10442;SDS011;5269;51.146;16.986;2022-07-19T10:33:08;5.32;;;2.83;;
10442;SDS011;5269;51.146;16.986;2022-07-19T10:35:53;9.77;;;3.20;;
10442;SDS011;5269;51.146;16.986;2022-07-19T10:38:20;4.47;;;3.60;;
10442;SDS011;5269;51.146;16.986;2022-07-19T10:40:49;4.45;;;2.60;;
10442;SDS011;5269;51.146;16.986;2022-07-19T10:43:21;6.20;;;2.88;;
10442;SDS011;5269;51.146;16.986;2022-07-19T10:46:08;7.45;;;3.17;;
10442;SDS011;5269;51.146;16.986;2022-07-19T10:48:37;4.68;;;3.03;;
10442;SDS011;5269;51.146;16.986;2022-07-19T10:51:05;3.45;;;2.67;;
10442;SDS011;5269;51.146;16.986;2022-07-19T10:56:35;3.78;;;3.30;;
10442;SDS011;5269;51.146;16.986;2022-07-19T10:59:04;5.00;;;2.85;;
10442;SDS011;5269;51.146;16.986;2022-07-19T11:01:32;3.65;;;2.40;;
10442;SDS011;5269;51.146;16.986;2022-07-19T11:07:13;4.00;;;2.80;;
10442;SDS011;5269;51.146;16.986;2022-07-19T11:09:49;4.75;;;3.00;;
10442;SDS011;5269;51.146;16.986;2022-07-19T11:12:23;8.27;;;3.60;;
10442;SDS011;5269;51.146;16.986;2022-07-19T11:14:54;7.72;;;2.78;;
10442;SDS011;5269;51.146;16.986;2022-07-19T11:17:22;5.43;;;2.40;;
10442;SDS011;5269;51.146;16.986;2022-07-19T11:20:03;3.10;;;2.80;;
10442;SDS011;5269;51.146;16.986;2022-07-19T11:22:33;5.75;;;3.10;;
10442;SDS011;5269;51.146;16.986;2022-07-19T11:25:02;5.35;;;2.70;;
10442;SDS011;5269;51.146;16.986;2022-07-19T11:27:31;5.97;;;3.40;;
10442;SDS011;5269;51.146;16.986;2022-07-19T11:30:01;4.22;;;2.97;;
10442;SDS011;5269;51.146;16.986;2022-07-19T11:32:30;3.90;;;2.72;;
10442;SDS011;5269;51.146;16.986;2022-07-19T11:34:58;4.15;;;3.13;;
10442;SDS011;5269;51.146;16.986;2022-07-19T11:37:27;6.22;;;2.70;;
10442;SDS011;5269;51.146;16.986;2022-07-19T11:39:55;3.55;;;2.78;;
10442;SDS011;5269;51.146;16.986;2022-07-19T11:42:27;3.25;;;2.95;;
10442;SDS011;5269;51.146;16.986;2022-07-19T11:44:56;3.50;;;3.00;;
10442;SDS011;5269;51.146;16.986;2022-07-19T11:47:24;3.88;;;2.75;;
10442;SDS011;5269;51.146;16.986;2022-07-19T11:49:51;4.70;;;2.83;;
10442;SDS011;5269;51.146;16.986;2022-07-19T11:52:18;3.03;;;2.78;;
10442;SDS011;5269;51.146;16.986;2022-07-19T11:54:57;6.50;;;2.80;;
10442;SDS011;5269;51.146;16.986;2022-07-19T11:57:25;4.65;;;2.88;;
10442;SDS011;5269;51.146;16.986;2022-07-19T11:59:53;2.58;;;2.38;;
10442;SDS011;5269;51.146;16.986;2022-07-19T12:02:21;3.78;;;2.60;;
10442;SDS011;5269;51.146;16.986;2022-07-19T12:04:48;6.53;;;3.10;;
10442;SDS011;5269;51.146;16.986;2022-07-19T12:07:15;3.60;;;3.30;;
10442;SDS011;5269;51.146;16.986;2022-07-19T12:09:44;6.25;;;2.90;;
10442;SDS011;5269;51.146;16.986;2022-07-19T12:12:11;4.70;;;2.70;;
10442;SDS011;5269;51.146;16.986;2022-07-19T12:14:39;5.40;;;2.63;;
10442;SDS011;5269;51.146;16.986;2022-07-19T12:17:10;2.97;;;2.67;;
10442;SDS011;5269;51.146;16.986;2022-07-19T12:19:41;3.00;;;2.70;;
10442;SDS011;5269;51.146;16.986;2022-07-19T12:24:54;4.18;;;3.22;;
10442;SDS011;5269;51.146;16.986;2022-07-19T12:27:21;4.25;;;2.88;;
10442;SDS011;5269;51.146;16.986;2022-07-19T12:29:52;7.30;;;2.70;;
10442;SDS011;5269;51.146;16.986;2022-07-19T12:32:26;3.90;;;2.80;;
10442;SDS011;5269;51.146;16.986;2022-07-19T12:34:56;4.03;;;3.03;;
10442;SDS011;5269;51.146;16.986;2022-07-19T12:37:25;4.38;;;2.80;;
10442;SDS011;5269;51.146;16.986;2022-07-19T12:39:57;4.82;;;2.85;;
10442;SDS011;5269;51.146;16.986;2022-07-19T12:42:25;8.13;;;3.30;;
10442;SDS011;5269;51.146;16.986;2022-07-19T12:45:00;7.40;;;3.47;;
10442;SDS011;5269;51.146;16.986;2022-07-19T12:47:27;5.07;;;3.28;;
10442;SDS011;5269;51.146;16.986;2022-07-19T12:49:55;3.63;;;2.60;;
10442;SDS011;5269;51.146;16.986;2022-07-19T12:52:22;2.92;;;2.72;;
10442;SDS011;5269;51.146;16.986;2022-07-19T12:54:49;5.05;;;3.05;;
10442;SDS011;5269;51.146;16.986;2022-07-19T12:57:16;3.78;;;2.95;;
10442;SDS011;5269;51.146;16.986;2022-07-19T12:59:43;3.28;;;2.80;;
10442;SDS011;5269;51.146;16.986;2022-07-19T13:02:12;5.20;;;3.10;;
10442;SDS011;5269;51.146;16.986;2022-07-19T13:04:40;3.33;;;3.00;;
10442;SDS011;5269;51.146;16.986;2022-07-19T13:07:11;3.20;;;2.78;;
10442;SDS011;5269;51.146;16.986;2022-07-19T13:09:39;3.80;;;3.40;;
10442;SDS011;5269;51.146;16.986;2022-07-19T13:12:09;8.02;;;3.40;;
10442;SDS011;5269;51.146;16.986;2022-07-19T13:14:36;14.02;;;6.10;;
10442;SDS011;5269;51.146;16.986;2022-07-19T13:17:04;3.95;;;2.72;;
10442;SDS011;5269;51.146;16.986;2022-07-19T13:19:32;5.55;;;2.97;;
10442;SDS011;5269;51.146;16.986;2022-07-19T13:21:59;2.92;;;2.70;;
10442;SDS011;5269;51.146;16.986;2022-07-19T13:24:27;3.50;;;3.20;;
10442;SDS011;5269;51.146;16.986;2022-07-19T13:26:54;3.90;;;3.00;;
10442;SDS011;5269;51.146;16.986;2022-07-19T13:29:21;3.17;;;2.97;;
10442;SDS011;5269;51.146;16.986;2022-07-19T13:31:48;3.92;;;2.92;;
10442;SDS011;5269;51.146;16.986;2022-07-19T13:34:15;5.70;;;2.88;;
10442;SDS011;5269;51.146;16.986;2022-07-19T13:36:42;5.03;;;3.10;;
10442;SDS011;5269;51.146;16.986;2022-07-19T13:39:10;3.55;;;3.25;;
10442;SDS011;5269;51.146;16.986;2022-07-19T13:41:38;4.28;;;3.05;;
10442;SDS011;5269;51.146;16.986;2022-07-19T13:44:05;6.78;;;3.03;;
10442;SDS011;5269;51.146;16.986;2022-07-19T13:46:33;9.55;;;3.20;;
10442;SDS011;5269;51.146;16.986;2022-07-19T13:49:00;5.55;;;2.90;;
10442;SDS011;5269;51.146;16.986;2022-07-19T13:51:27;3.58;;;2.78;;
10442;SDS011;5269;51.146;16.986;2022-07-19T13:53:55;4.13;;;2.50;;
10442;SDS011;5269;51.146;16.986;2022-07-19T13:56:22;4.45;;;3.05;;
10442;SDS011;5269;51.146;16.986;2022-07-19T13:58:50;5.22;;;3.10;;
10442;SDS011;5269;51.146;16.986;2022-07-19T14:01:18;5.03;;;3.35;;
10442;SDS011;5269;51.146;16.986;2022-07-19T14:03:45;6.47;;;3.50;;
10442;SDS011;5269;51.146;16.986;2022-07-19T14:06:13;3.80;;;3.50;;
10442;SDS011;5269;51.146;16.986;2022-07-19T14:08:41;5.25;;;3.17;;
10442;SDS011;5269;51.146;16.986;2022-07-19T14:11:08;4.38;;;3.17;;
10442;SDS011;5269;51.146;16.986;2022-07-19T14:13:36;5.55;;;3.38;;
10442;SDS011;5269;51.146;16.986;2022-07-19T14:16:05;6.57;;;3.08;;
10442;SDS011;5269;51.146;16.986;2022-07-19T14:18:32;4.43;;;3.30;;
10442;SDS011;5269;51.146;16.986;2022-07-19T14:20:59;6.05;;;3.20;;
10442;SDS011;5269;51.146;16.986;2022-07-19T14:23:27;3.53;;;3.17;;
10442;SDS011;5269;51.146;16.986;2022-07-19T14:25:54;4.10;;;2.70;;
10442;SDS011;5269;51.146;16.986;2022-07-19T14:28:21;7.72;;;3.20;;
10442;SDS011;5269;51.146;16.986;2022-07-19T14:30:48;3.92;;;2.70;;
10442;SDS011;5269;51.146;16.986;2022-07-19T14:33:17;8.32;;;3.20;;
10442;SDS011;5269;51.146;16.986;2022-07-19T14:35:44;5.78;;;3.20;;
10442;SDS011;5269;51.146;16.986;2022-07-19T14:38:11;5.72;;;3.28;;
10442;SDS011;5269;51.146;16.986;2022-07-19T14:40:37;4.47;;;3.30;;
10442;SDS011;5269;51.146;16.986;2022-07-19T14:43:04;5.10;;;3.28;;
10442;SDS011;5269;51.146;16.986;2022-07-19T14:45:32;5.43;;;3.35;;
10442;SDS011;5269;51.146;16.986;2022-07-19T14:47:59;4.57;;;3.42;;
10442;SDS011;5269;51.146;16.986;2022-07-19T14:50:27;6.40;;;3.50;;
10442;SDS011;5269;51.146;16.986;2022-07-19T14:52:54;6.40;;;3.20;;
10442;SDS011;5269;51.146;16.986;2022-07-19T14:55:21;4.13;;;3.30;;
10442;SDS011;5269;51.146;16.986;2022-07-19T14:57:48;3.78;;;3.40;;
10442;SDS011;5269;51.146;16.986;2022-07-19T15:00:15;3.28;;;2.95;;